Time;durP1;ratioP1;P1;durP2;ratioP2;P2;SDS_P1;SDS_P2;PMS_P1;PMS_P2;Temp;Humidity;BMP_temperature;BMP_pressure;BME280_temperature;BME280_humidity;BME280_pressure;Samples;Min_cycle;Max_cycle;Signal;HPM_P1;HPM_P2
2021/05/07 00:01:29;;;;;;;2.20;1.80;;;9.30;73.00;;;;;;5038560;28;20580;-77
2021/05/07 00:03:56;;;;;;;2.35;2.15;;;9.30;73.20;;;;;;5033185;28;20219;-75
2021/05/07 00:06:22;;;;;;;2.30;2.10;;;9.20;72.90;;;;;;5017453;28;20210;-75
2021/05/07 00:08:50;;;;;;;2.22;2.00;;;9.20;72.30;;;;;;5020786;28;20243;-75
2021/05/07 00:11:18;;;;;;;2.30;2.10;;;9.20;73.90;;;;;;5019182;28;20282;-74
2021/05/07 00:13:45;;;;;;;2.92;2.10;;;9.10;75.10;;;;;;5015670;28;20260;-74
2021/05/07 00:16:12;;;;;;;3.38;2.67;;;9.10;76.50;;;;;;5034685;28;20298;-75
2021/05/07 00:18:38;;;;;;;2.47;2.20;;;9.10;76.50;;;;;;5034262;28;20714;-76
2021/05/07 00:21:05;;;;;;;1.80;1.70;;;9.10;77.00;;;;;;5035091;28;20239;-75
2021/05/07 00:23:32;;;;;;;2.80;2.30;;;9.10;76.60;;;;;;5034313;28;20289;-77
2021/05/07 00:26:00;;;;;;;1.80;1.70;;;9.00;77.50;;;;;;5034197;28;20306;-75
2021/05/07 00:28:26;;;;;;;1.70;1.60;;;9.00;78.20;;;;;;5033970;28;20759;-76
2021/05/07 00:30:53;;;;;;;2.30;2.20;;;9.00;79.10;;;;;;5033921;28;20261;-75
2021/05/07 00:33:19;;;;;;;2.58;2.38;;;8.90;80.50;;;;;;5034521;28;20207;-76
2021/05/07 00:35:46;;;;;;;2.08;1.88;;;9.00;82.10;;;;;;5019094;28;20231;-76
2021/05/07 00:38:14;;;;;;;2.50;2.30;;;9.00;82.90;;;;;;5013227;28;20224;-76
2021/05/07 00:40:40;;;;;;;2.17;1.95;;;9.00;83.50;;;;;;5013921;28;20370;-75
2021/05/07 00:43:07;;;;;;;2.10;1.92;;;8.90;84.70;;;;;;5013868;28;20279;-75
2021/05/07 00:45:34;;;;;;;2.40;2.20;;;8.80;84.60;;;;;;5014555;28;20211;-76
2021/05/07 00:48:04;;;;;;;2.35;2.15;;;8.80;85.90;;;;;;5021686;28;20231;-76
2021/05/07 00:50:32;;;;;;;1.92;1.83;;;8.80;87.40;;;;;;5033621;28;20203;-75
2021/05/07 00:53:00;;;;;;;1.80;1.70;;;8.70;88.30;;;;;;5034319;28;20234;-75
2021/05/07 00:55:26;;;;;;;2.03;1.90;;;8.70;89.40;;;;;;5033944;28;20818;-76
2021/05/07 00:57:53;;;;;;;2.70;2.20;;;8.70;90.00;;;;;;5033264;28;20247;-76
2021/05/07 01:00:22;;;;;;;2.13;1.92;;;8.60;90.50;;;;;;5034054;28;20235;-77
2021/05/07 01:02:48;;;;;;;2.33;2.13;;;8.60;91.00;;;;;;5034513;28;20235;-76
2021/05/07 01:05:15;;;;;;;2.28;1.95;;;8.50;91.10;;;;;;5039754;28;20242;-76
2021/05/07 01:07:42;;;;;;;2.30;2.10;;;8.50;91.70;;;;;;5034098;28;20591;-77
2021/05/07 01:10:11;;;;;;;2.05;1.95;;;8.50;91.90;;;;;;5033510;28;20337;-76
2021/05/07 01:12:40;;;;;;;2.83;2.30;;;8.40;92.10;;;;;;5031571;28;20809;-76
2021/05/07 01:15:09;;;;;;;2.15;1.98;;;8.40;92.30;;;;;;5033068;28;20617;-76
2021/05/07 01:17:39;;;;;;;1.75;1.65;;;8.30;92.90;;;;;;5013065;28;20256;-77
2021/05/07 01:20:12;;;;;;;2.20;2.10;;;8.40;93.50;;;;;;5015717;28;20195;-77
2021/05/07 01:22:40;;;;;;;2.20;2.00;;;8.30;93.90;;;;;;5020178;28;20196;-77
2021/05/07 01:25:09;;;;;;;2.22;2.03;;;8.40;94.60;;;;;;5028702;28;20188;-75
2021/05/07 01:27:38;;;;;;;4.25;2.58;;;8.30;94.70;;;;;;5030711;28;20224;-76
2021/05/07 01:30:10;;;;;;;2.00;1.90;;;8.30;94.90;;;;;;5027846;28;20212;-76
2021/05/07 01:32:37;;;;;;;2.47;2.28;;;8.30;95.30;;;;;;5039367;28;20253;-76
2021/05/07 01:35:08;;;;;;;2.78;2.58;;;8.30;95.70;;;;;;5046158;28;20203;-76
2021/05/07 01:37:36;;;;;;;2.42;2.33;;;8.20;95.90;;;;;;5021603;28;20231;-78
2021/05/07 01:40:10;;;;;;;2.47;2.28;;;8.20;96.00;;;;;;5014278;28;20240;-77
2021/05/07 01:42:36;;;;;;;2.17;2.08;;;8.20;96.30;;;;;;5015218;28;20200;-77
2021/05/07 01:45:04;;;;;;;3.83;2.70;;;8.30;96.60;;;;;;5018621;28;20208;-77
2021/05/07 01:47:30;;;;;;;2.58;2.38;;;8.30;96.50;;;;;;5033355;28;20234;-77
2021/05/07 01:49:57;;;;;;;2.22;2.08;;;8.20;96.40;;;;;;5042925;28;20269;-76
2021/05/07 01:52:23;;;;;;;3.28;3.00;;;8.20;96.30;;;;;;5023865;28;20256;-77
2021/05/07 01:54:51;;;;;;;2.70;2.50;;;8.20;96.20;;;;;;5018963;28;20235;-76
2021/05/07 01:57:17;;;;;;;2.78;2.50;;;8.30;96.50;;;;;;5028129;28;20717;-76
2021/05/07 01:59:44;;;;;;;2.78;2.58;;;8.30;96.60;;;;;;5030555;28;20220;-76
2021/05/07 02:02:10;;;;;;;2.47;2.28;;;8.30;96.50;;;;;;5021319;28;20208;-76
2021/05/07 02:04:37;;;;;;;2.80;2.60;;;8.30;96.50;;;;;;5013002;28;20691;-75
2021/05/07 02:07:03;;;;;;;3.45;2.45;;;8.30;96.20;;;;;;5013238;28;20585;-76
2021/05/07 02:09:29;;;;;;;3.20;2.90;;;8.30;96.50;;;;;;5014003;28;20200;-76
2021/05/07 02:11:57;;;;;;;2.55;2.35;;;8.30;96.50;;;;;;5013822;28;20365;-76
2021/05/07 02:14:23;;;;;;;3.00;2.70;;;8.20;96.40;;;;;;5014147;28;20212;-76
2021/05/07 02:16:50;;;;;;;2.70;2.50;;;8.20;96.40;;;;;;5013219;28;20361;-75
2021/05/07 02:19:16;;;;;;;3.00;2.70;;;8.30;96.20;;;;;;5014280;28;20208;-76
2021/05/07 02:21:43;;;;;;;2.60;2.40;;;8.20;96.30;;;;;;5013989;28;20208;-76
2021/05/07 02:24:11;;;;;;;3.10;2.80;;;8.20;96.30;;;;;;5014903;28;20290;-76
2021/05/07 02:26:38;;;;;;;3.25;2.95;;;8.20;96.40;;;;;;5018936;28;20309;-76
2021/05/07 02:29:05;;;;;;;3.13;2.83;;;8.20;95.90;;;;;;5025038;28;20219;-76
2021/05/07 02:31:32;;;;;;;3.58;2.90;;;8.20;95.80;;;;;;5022319;28;20259;-76
2021/05/07 02:33:58;;;;;;;2.78;2.58;;;8.20;96.00;;;;;;5024910;28;20204;-75
2021/05/07 02:36:25;;;;;;;5.25;2.90;;;8.20;96.10;;;;;;5033009;28;20219;-76
2021/05/07 02:38:51;;;;;;;2.88;2.67;;;8.20;96.30;;;;;;5034505;28;20195;-75
2021/05/07 02:41:18;;;;;;;2.97;2.78;;;8.20;96.40;;;;;;5034763;28;20204;-75
2021/05/07 02:43:44;;;;;;;3.45;3.15;;;8.20;96.50;;;;;;5041277;28;20209;-76
2021/05/07 02:46:14;;;;;;;3.13;2.80;;;8.20;96.50;;;;;;5052993;28;20211;-76
2021/05/07 02:48:40;;;;;;;3.55;3.25;;;8.20;96.70;;;;;;5045489;28;20258;-76
2021/05/07 02:51:06;;;;;;;3.72;3.30;;;8.20;96.90;;;;;;5040086;28;20242;-76
2021/05/07 02:53:33;;;;;;;4.15;3.70;;;8.20;96.50;;;;;;5040017;28;20204;-75
2021/05/07 02:55:59;;;;;;;4.28;3.95;;;8.20;96.40;;;;;;5030266;28;20203;-76
2021/05/07 02:58:26;;;;;;;5.22;4.72;;;8.20;96.40;;;;;;5034424;28;20282;-76
2021/05/07 03:00:52;;;;;;;4.40;4.00;;;8.10;96.20;;;;;;5021393;28;20735;-75
2021/05/07 03:03:19;;;;;;;4.50;4.07;;;8.10;95.90;;;;;;5036521;28;20210;-76
2021/05/07 03:05:46;;;;;;;4.22;3.90;;;8.10;96.00;;;;;;5035982;28;20787;-76
2021/05/07 03:08:12;;;;;;;4.97;4.15;;;8.00;96.30;;;;;;5017727;28;20648;-75
2021/05/07 03:10:39;;;;;;;5.10;4.35;;;8.10;96.60;;;;;;5017959;28;20728;-78
2021/05/07 03:13:05;;;;;;;4.82;4.30;;;8.10;96.80;;;;;;5019008;28;20810;-78
2021/05/07 03:15:32;;;;;;;4.32;3.90;;;8.10;96.90;;;;;;5018553;28;20204;-77
2021/05/07 03:17:58;;;;;;;4.85;4.45;;;8.00;96.50;;;;;;5017776;28;20228;-76
2021/05/07 03:20:26;;;;;;;5.05;4.55;;;8.00;96.80;;;;;;5024378;28;20203;-76
2021/05/07 03:22:52;;;;;;;5.80;5.00;;;8.00;96.80;;;;;;5037536;28;20203;-76
2021/05/07 03:25:19;;;;;;;5.28;4.45;;;8.00;96.90;;;;;;5036293;28;20239;-76
2021/05/07 03:27:45;;;;;;;5.55;4.20;;;8.00;96.90;;;;;;5036470;28;20238;-75
2021/05/07 03:30:13;;;;;;;4.25;3.85;;;7.90;96.90;;;;;;5036697;28;20578;-76
2021/05/07 03:32:39;;;;;;;5.05;3.78;;;7.90;97.10;;;;;;5036554;28;20678;-76
2021/05/07 03:35:06;;;;;;;4.05;3.75;;;7.90;97.50;;;;;;5036887;28;20211;-76
2021/05/07 03:37:34;;;;;;;3.55;3.25;;;7.90;98.00;;;;;;5037306;28;20281;-77
2021/05/07 03:40:00;;;;;;;5.00;3.88;;;7.90;98.00;;;;;;5027896;28;20304;-76
2021/05/07 03:42:29;;;;;;;4.80;3.50;;;8.00;98.80;;;;;;5018199;28;20283;-77
2021/05/07 03:44:56;;;;;;;3.45;3.15;;;8.00;99.00;;;;;;5018173;28;20223;-76
2021/05/07 03:47:22;;;;;;;4.53;3.72;;;7.90;99.10;;;;;;5045276;23;20258;-84
2021/05/07 03:49:49;;;;;;;4.25;3.85;;;7.90;99.70;;;;;;5034432;28;20239;-83
2021/05/07 03:52:15;;;;;;;3.65;3.20;;;7.90;99.80;;;;;;5024069;28;20219;-81
2021/05/07 03:54:44;;;;;;;3.47;3.22;;;7.90;99.90;;;;;;5023374;28;20227;-84
2021/05/07 03:57:11;;;;;;;3.33;3.05;;;7.90;99.90;;;;;;5033789;28;20219;-80
2021/05/07 03:59:37;;;;;;;5.00;3.45;;;7.90;99.90;;;;;;5010728;28;20216;-84
2021/05/07 04:02:04;;;;;;;3.60;3.30;;;7.90;99.90;;;;;;5014205;28;20193;-80
2021/05/07 04:04:32;;;;;;;3.63;3.05;;;7.90;99.90;;;;;;5017911;28;20204;-82
2021/05/07 04:06:59;;;;;;;3.67;3.38;;;7.90;99.90;;;;;;5022484;28;20248;-84
2021/05/07 04:09:31;;;;;;;7.30;3.47;;;7.90;99.90;;;;;;5030455;28;20211;-84
2021/05/07 04:12:09;;;;;;;4.85;4.35;;;7.90;99.90;;;;;;5020825;28;20232;-81
2021/05/07 04:14:36;;;;;;;5.53;3.60;;;7.90;99.90;;;;;;5004502;28;20208;-81
2021/05/07 04:17:03;;;;;;;4.80;4.00;;;7.90;99.90;;;;;;5009855;28;20208;-82
2021/05/07 04:19:30;;;;;;;4.45;4.05;;;7.80;99.90;;;;;;5017997;28;20256;-86
2021/05/07 04:21:56;;;;;;;4.65;3.95;;;7.90;99.90;;;;;;5018554;28;20188;-86
2021/05/07 04:24:23;;;;;;;5.78;4.32;;;7.80;99.90;;;;;;5018705;28;20188;-81
2021/05/07 04:26:49;;;;;;;4.90;4.30;;;7.80;99.90;;;;;;5010791;28;20212;-81
2021/05/07 04:29:17;;;;;;;4.07;3.65;;;7.80;99.90;;;;;;5008569;28;20211;-81
2021/05/07 04:31:43;;;;;;;4.10;3.70;;;7.70;99.90;;;;;;5006774;28;20742;-82
2021/05/07 04:34:09;;;;;;;5.15;4.15;;;7.80;99.90;;;;;;5008233;28;20243;-82
2021/05/07 04:36:36;;;;;;;5.35;4.53;;;7.80;99.90;;;;;;5007992;28;20284;-81
2021/05/07 04:39:04;;;;;;;4.70;3.95;;;7.80;99.90;;;;;;5010469;28;20236;-86
2021/05/07 04:41:30;;;;;;;4.38;3.97;;;7.80;99.90;;;;;;5021443;28;20212;-84
2021/05/07 04:43:57;;;;;;;5.00;4.13;;;7.80;99.90;;;;;;5028912;28;20663;-82
2021/05/07 04:46:24;;;;;;;3.72;3.30;;;7.90;99.90;;;;;;5024277;28;20260;-83
2021/05/07 04:48:50;;;;;;;4.65;4.15;;;7.90;99.90;;;;;;5030322;28;20278;-85
2021/05/07 04:51:17;;;;;;;4.28;3.88;;;7.80;99.90;;;;;;5016806;28;20212;-82
2021/05/07 04:53:43;;;;;;;4.70;4.25;;;7.80;99.90;;;;;;5033000;28;20199;-83
2021/05/07 04:56:09;;;;;;;4.72;4.22;;;7.80;99.90;;;;;;5037692;28;20180;-83
2021/05/07 04:58:36;;;;;;;4.25;3.85;;;7.80;99.90;;;;;;5023729;28;20224;-84
2021/05/07 05:01:02;;;;;;;6.30;4.50;;;7.80;99.90;;;;;;5017736;28;20219;-82
2021/05/07 05:03:30;;;;;;;5.40;4.22;;;7.90;99.90;;;;;;5029718;28;20268;-82
2021/05/07 05:05:56;;;;;;;4.90;4.40;;;7.80;99.90;;;;;;5036589;28;20261;-83
2021/05/07 05:08:23;;;;;;;5.40;4.70;;;7.90;99.90;;;;;;5034340;28;20204;-83
2021/05/07 05:10:54;;;;;;;5.25;4.75;;;7.90;99.90;;;;;;5036627;28;20242;-85
2021/05/07 05:13:21;;;;;;;5.80;4.45;;;7.90;99.90;;;;;;5036638;28;20198;-84
2021/05/07 05:15:49;;;;;;;5.10;4.60;;;7.90;99.90;;;;;;5037391;28;20191;-83
2021/05/07 05:18:25;;;;;;;4.70;4.30;;;8.00;99.90;;;;;;5020635;28;20231;-83
2021/05/07 05:20:54;;;;;;;4.95;4.45;;;7.90;99.90;;;;;;5016945;28;20211;-83
2021/05/07 05:23:20;;;;;;;5.90;5.32;;;7.90;99.90;;;;;;5031464;28;20626;-84
2021/05/07 05:25:47;;;;;;;6.35;5.20;;;7.90;99.90;;;;;;5030500;28;20236;-82
2021/05/07 05:28:14;;;;;;;4.78;4.35;;;8.00;99.90;;;;;;5009447;28;20228;-82
2021/05/07 05:30:41;;;;;;;5.70;5.15;;;8.00;99.90;;;;;;5006135;28;20209;-82
2021/05/07 05:33:07;;;;;;;5.97;5.03;;;8.10;99.90;;;;;;5014069;28;20208;-81
2021/05/07 05:35:34;;;;;;;5.38;4.90;;;8.20;99.90;;;;;;5021022;28;20227;-83
2021/05/07 05:38:02;;;;;;;5.35;4.60;;;8.20;99.90;;;;;;5019550;28;20282;-80
2021/05/07 05:40:28;;;;;;;5.40;4.70;;;8.20;99.70;;;;;;5022927;28;20503;-84
2021/05/07 05:42:55;;;;;;;5.50;4.75;;;8.20;98.80;;;;;;5023275;28;20272;-81
2021/05/07 05:45:24;;;;;;;5.25;4.75;;;8.30;98.40;;;;;;5025961;28;20197;-80
2021/05/07 05:48:01;;;;;;;6.43;5.82;;;8.40;98.20;;;;;;5033018;28;20228;-83
2021/05/07 05:50:27;;;;;;;11.98;6.00;;;8.40;97.10;;;;;;5027927;28;20184;-80
2021/05/07 05:52:54;;;;;;;5.60;5.07;;;8.40;96.50;;;;;;5006453;28;20271;-78
2021/05/07 05:55:22;;;;;;;5.90;5.30;;;8.50;96.50;;;;;;5017755;28;20200;-82
2021/05/07 05:57:49;;;;;;;6.03;5.07;;;8.60;95.60;;;;;;5035057;28;20212;-82
2021/05/07 06:00:17;;;;;;;6.68;5.55;;;8.60;94.80;;;;;;5034807;28;20196;-80
2021/05/07 06:02:43;;;;;;;6.25;5.65;;;8.70;93.50;;;;;;5030803;28;20207;-82
2021/05/07 06:05:12;;;;;;;6.07;5.38;;;8.70;93.00;;;;;;5023162;28;20298;-81
2021/05/07 06:07:38;;;;;;;5.68;4.93;;;8.70;91.20;;;;;;5026564;28;20323;-83
2021/05/07 06:10:07;;;;;;;5.95;5.40;;;8.70;91.20;;;;;;5025729;28;20199;-81
2021/05/07 06:12:35;;;;;;;6.30;5.70;;;8.80;90.70;;;;;;5023619;28;20287;-79
2021/05/07 06:15:01;;;;;;;6.43;5.60;;;8.90;90.40;;;;;;5026866;28;20663;-78
2021/05/07 06:17:28;;;;;;;6.97;6.28;;;8.90;87.00;;;;;;5017799;28;20232;-81
2021/05/07 06:19:56;;;;;;;6.57;5.57;;;9.00;85.20;;;;;;5016554;28;20207;-81
2021/05/07 06:22:23;;;;;;;6.43;5.75;;;9.10;83.70;;;;;;5018721;28;20215;-79
2021/05/07 06:24:50;;;;;;;7.32;5.97;;;9.30;80.40;;;;;;5022624;28;20192;-80
2021/05/07 06:27:17;;;;;;;7.45;5.65;;;9.60;79.40;;;;;;5038710;28;20238;-82
2021/05/07 06:29:44;;;;;;;6.80;5.95;;;9.60;74.10;;;;;;5037726;28;20225;-79
2021/05/07 06:32:10;;;;;;;7.60;5.45;;;9.60;70.80;;;;;;5017855;28;20243;-81
2021/05/07 06:34:37;;;;;;;5.93;5.32;;;9.70;66.20;;;;;;5026264;28;20229;-80
2021/05/07 06:37:03;;;;;;;8.82;6.40;;;9.80;62.60;;;;;;5035182;28;20359;-81
2021/05/07 06:39:30;;;;;;;6.18;5.25;;;10.00;63.10;;;;;;5030927;28;20203;-81
2021/05/07 06:41:57;;;;;;;5.30;4.80;;;10.10;58.80;;;;;;5037754;28;20192;-80
2021/05/07 06:44:24;;;;;;;5.80;5.20;;;10.10;58.70;;;;;;5031296;28;20192;-79
2021/05/07 06:46:51;;;;;;;9.45;6.30;;;9.90;59.60;;;;;;5018986;28;20188;-80
2021/05/07 06:49:18;;;;;;;7.97;5.50;;;9.80;59.50;;;;;;5033772;28;20211;-79
2021/05/07 06:51:44;;;;;;;6.90;6.20;;;9.70;59.40;;;;;;5027250;28;20224;-81
2021/05/07 06:54:11;;;;;;;7.85;5.95;;;9.60;60.70;;;;;;5015110;28;20219;-80
2021/05/07 06:56:37;;;;;;;6.20;5.60;;;9.60;61.00;;;;;;5014755;28;20295;-81
2021/05/07 06:59:06;;;;;;;5.93;5.38;;;9.60;59.30;;;;;;5025617;28;20665;-78
2021/05/07 07:01:32;;;;;;;6.05;5.45;;;9.60;58.30;;;;;;5009505;28;20219;-80
2021/05/07 07:04:00;;;;;;;7.10;5.97;;;9.60;56.20;;;;;;5002848;28;20208;-80
2021/05/07 07:06:26;;;;;;;6.68;5.30;;;9.60;56.60;;;;;;5003257;28;20223;-79
2021/05/07 07:08:53;;;;;;;6.55;5.75;;;9.60;54.60;;;;;;5005044;28;20225;-82
2021/05/07 07:11:19;;;;;;;6.80;6.20;;;9.80;54.80;;;;;;5011027;28;20710;-81
2021/05/07 07:13:45;;;;;;;6.45;5.85;;;10.10;51.60;;;;;;5025854;28;20265;-81
2021/05/07 07:16:14;;;;;;;6.88;5.38;;;10.00;50.50;;;;;;5007765;28;20203;-83
2021/05/07 07:18:40;;;;;;;7.47;5.60;;;10.00;49.20;;;;;;5027052;28;20220;-81
2021/05/07 07:21:08;;;;;;;6.85;6.13;;;10.10;49.30;;;;;;5007149;28;20209;-82
2021/05/07 07:23:35;;;;;;;6.45;5.43;;;10.30;49.50;;;;;;5003532;28;20208;-82
2021/05/07 07:26:01;;;;;;;14.98;5.85;;;10.50;49.70;;;;;;5005450;28;20208;-78
2021/05/07 07:28:28;;;;;;;6.78;5.32;;;10.00;47.40;;;;;;5002639;28;20689;-80
2021/05/07 07:30:54;;;;;;;6.70;6.10;;;10.30;49.30;;;;;;5003017;28;20231;-81
2021/05/07 07:33:21;;;;;;;6.20;5.60;;;10.50;48.10;;;;;;4998290;28;20207;-80
2021/05/07 07:35:47;;;;;;;6.03;5.53;;;10.80;47.20;;;;;;5015179;28;20274;-81
2021/05/07 07:38:14;;;;;;;5.78;4.97;;;11.10;45.60;;;;;;5014306;28;20221;-78
2021/05/07 07:40:41;;;;;;;6.20;5.60;;;11.20;44.00;;;;;;5020236;28;20231;-79
2021/05/07 07:43:07;;;;;;;6.35;5.75;;;11.10;44.60;;;;;;5027465;28;20235;-78
2021/05/07 07:45:34;;;;;;;6.72;5.60;;;10.70;45.80;;;;;;5022983;28;20215;-78
2021/05/07 07:48:00;;;;;;;6.13;5.35;;;10.40;44.10;;;;;;5020215;28;20715;-79
2021/05/07 07:50:26;;;;;;;5.65;4.85;;;10.30;43.30;;;;;;5010035;28;20250;-78
2021/05/07 07:52:53;;;;;;;7.10;5.82;;;10.50;44.80;;;;;;4999794;28;20231;-76
2021/05/07 07:55:20;;;;;;;7.40;5.93;;;10.60;41.10;;;;;;5006227;28;20204;-77
2021/05/07 07:57:47;;;;;;;7.15;6.30;;;10.50;42.10;;;;;;5018338;28;20668;-78
2021/05/07 08:00:14;;;;;;;7.40;6.22;;;10.40;42.80;;;;;;5012135;28;20228;-81
2021/05/07 08:02:41;;;;;;;7.00;6.15;;;10.40;43.10;;;;;;5001652;28;20229;-80
2021/05/07 08:05:08;;;;;;;6.80;5.45;;;10.50;38.80;;;;;;5003370;28;20212;-79
2021/05/07 08:07:35;;;;;;;5.68;4.90;;;10.60;38.60;;;;;;5004040;28;20331;-79
2021/05/07 08:10:01;;;;;;;6.55;4.85;;;10.70;40.10;;;;;;5003556;28;20200;-79
2021/05/07 08:12:30;;;;;;;5.80;5.20;;;10.90;39.80;;;;;;4997563;28;20595;-79
2021/05/07 08:14:56;;;;;;;5.97;4.60;;;11.00;36.20;;;;;;5007945;28;20226;-79
2021/05/07 08:17:23;;;;;;;6.50;4.72;;;11.00;36.10;;;;;;5017310;28;20223;-78
2021/05/07 08:19:50;;;;;;;7.93;4.72;;;11.10;33.70;;;;;;5008788;28;20295;-79
2021/05/07 08:22:17;;;;;;;7.30;4.85;;;11.10;33.30;;;;;;4996215;28;20278;-77
2021/05/07 08:24:44;;;;;;;5.28;4.50;;;11.00;33.90;;;;;;4997595;28;20324;-78
2021/05/07 08:27:10;;;;;;;5.97;4.38;;;10.90;34.40;;;;;;4995476;28;20255;-78
2021/05/07 08:29:37;;;;;;;6.78;4.05;;;10.70;35.50;;;;;;5001644;28;20203;-78
2021/05/07 08:32:04;;;;;;;7.68;4.82;;;10.70;34.70;;;;;;5014402;28;20307;-80
2021/05/07 08:34:31;;;;;;;4.00;3.60;;;10.90;34.40;;;;;;5017435;28;20255;-79
2021/05/07 08:36:57;;;;;;;4.07;3.72;;;11.00;33.20;;;;;;4997932;28;20372;-79
2021/05/07 08:39:24;;;;;;;3.30;3.00;;;11.00;32.10;;;;;;5000413;28;20632;-81
2021/05/07 08:41:50;;;;;;;4.10;3.80;;;11.00;30.90;;;;;;5006234;28;20208;-80
2021/05/07 08:44:18;;;;;;;4.28;3.67;;;11.20;30.90;;;;;;4997529;28;20197;-79
2021/05/07 08:46:46;;;;;;;4.97;3.83;;;11.30;30.70;;;;;;5000039;28;20268;-79
2021/05/07 08:49:18;;;;;;;4.45;4.05;;;11.50;30.80;;;;;;5000441;28;20235;-81
2021/05/07 08:51:45;;;;;;;4.40;3.83;;;11.60;31.60;;;;;;5017634;28;20259;-79
2021/05/07 08:54:12;;;;;;;5.55;3.75;;;11.70;31.00;;;;;;5017825;28;20201;-79
2021/05/07 08:56:39;;;;;;;4.25;3.35;;;11.50;30.80;;;;;;5018241;28;20207;-80
2021/05/07 08:59:07;;;;;;;4.20;3.80;;;11.40;30.70;;;;;;5015254;28;20246;-78
2021/05/07 09:01:41;;;;;;;3.85;3.40;;;11.30;28.70;;;;;;5000135;28;20568;-79
2021/05/07 09:04:13;;;;;;;3.70;3.40;;;11.30;29.30;;;;;;5008055;28;20214;-80
2021/05/07 09:06:41;;;;;;;4.32;3.92;;;11.50;27.20;;;;;;5023175;28;20266;-79
2021/05/07 09:09:23;;;;;;;3.38;3.08;;;11.60;27.80;;;;;;5012676;28;20224;-80
2021/05/07 09:11:50;;;;;;;3.53;3.22;;;11.80;26.00;;;;;;5008704;28;20320;-80
2021/05/07 09:14:17;;;;;;;3.28;3.05;;;11.80;26.50;;;;;;5022737;28;20230;-78
2021/05/07 09:16:52;;;;;;;4.78;3.40;;;11.80;26.60;;;;;;5030835;28;20231;-80
2021/05/07 09:19:21;;;;;;;5.25;2.47;;;11.80;27.40;;;;;;5013786;28;20228;-79
2021/05/07 09:21:48;;;;;;;3.67;3.10;;;11.60;24.80;;;;;;5017531;28;20192;-79
2021/05/07 09:24:15;;;;;;;3.58;3.05;;;11.60;25.30;;;;;;5022008;28;20218;-80
2021/05/07 09:26:49;;;;;;;4.32;3.20;;;11.70;22.90;;;;;;5028223;28;20208;-79
2021/05/07 09:29:20;;;;;;;3.20;2.90;;;11.80;23.20;;;;;;5010275;28;20549;-76
2021/05/07 09:31:49;;;;;;;3.67;3.03;;;12.10;23.90;;;;;;4996753;28;20240;-78
2021/05/07 09:34:16;;;;;;;3.30;3.00;;;12.40;23.40;;;;;;5004757;28;20266;-78
2021/05/07 09:36:43;;;;;;;3.53;3.20;;;12.40;23.40;;;;;;5017020;28;20296;-79
2021/05/07 09:39:14;;;;;;;3.63;3.33;;;12.50;23.50;;;;;;5012493;28;20247;-79
2021/05/07 09:41:42;;;;;;;3.15;2.85;;;12.20;23.30;;;;;;5003905;28;20204;-80
2021/05/07 09:44:17;;;;;;;4.15;3.22;;;12.00;23.10;;;;;;5009570;28;20294;-81
2021/05/07 09:46:44;;;;;;;4.50;3.17;;;12.30;22.40;;;;;;5010854;28;20205;-79
2021/05/07 09:49:21;;;;;;;3.08;2.88;;;12.60;23.00;;;;;;5093515;23;20233;-80
2021/05/07 09:51:48;;;;;;;3.53;3.20;;;12.90;22.50;;;;;;5082713;28;20333;-80
2021/05/07 09:54:15;;;;;;;3.10;2.80;;;13.10;20.60;;;;;;5079579;28;20210;-79
2021/05/07 09:56:41;;;;;;;6.95;3.50;;;13.00;21.10;;;;;;5078791;28;20260;-80
2021/05/07 09:59:09;;;;;;;3.60;3.22;;;12.80;20.90;;;;;;5077812;28;20312;-78
2021/05/07 10:01:36;;;;;;;3.42;3.13;;;12.70;21.40;;;;;;5061563;28;20329;-79
2021/05/07 10:04:03;;;;;;;3.90;3.40;;;13.10;22.10;;;;;;5059429;28;20670;-80
2021/05/07 10:06:32;;;;;;;3.95;3.15;;;13.60;21.80;;;;;;5061715;28;20206;-80
2021/05/07 10:08:59;;;;;;;4.00;3.60;;;13.50;20.10;;;;;;5058667;28;20226;-78
2021/05/07 10:11:35;;;;;;;3.20;2.90;;;13.10;20.30;;;;;;5073991;28;20206;-77
2021/05/07 10:14:07;;;;;;;3.58;3.28;;;13.00;20.90;;;;;;5075627;28;20641;-78
2021/05/07 10:16:34;;;;;;;3.10;2.80;;;12.90;21.10;;;;;;5085738;28;20202;-79
2021/05/07 10:19:02;;;;;;;3.03;2.83;;;13.40;21.80;;;;;;5085924;28;20237;-79
2021/05/07 10:21:37;;;;;;;3.30;3.00;;;13.80;21.20;;;;;;5088121;28;20189;-79
2021/05/07 10:24:06;;;;;;;3.80;3.40;;;13.70;19.30;;;;;;5085929;28;20206;-78
2021/05/07 10:26:38;;;;;;;3.90;3.30;;;13.40;19.50;;;;;;5066193;28;20237;-77
2021/05/07 10:29:16;;;;;;;3.10;2.80;;;13.20;19.90;;;;;;5053056;28;20253;-76
2021/05/07 10:31:47;;;;;;;3.53;3.22;;;13.30;20.00;;;;;;5057376;28;20214;-76
2021/05/07 10:34:13;;;;;;;3.33;3.05;;;13.20;19.50;;;;;;5073771;28;20285;-77
2021/05/07 10:36:40;;;;;;;3.75;3.45;;;13.00;20.40;;;;;;5073554;28;20284;-77
2021/05/07 10:39:17;;;;;;;4.60;2.97;;;13.00;19.80;;;;;;5072796;28;20226;-77
2021/05/07 10:41:44;;;;;;;3.38;3.08;;;13.00;20.20;;;;;;5072883;28;20202;-77
2021/05/07 10:44:13;;;;;;;3.72;3.30;;;13.00;20.30;;;;;;5074451;28;20278;-76
2021/05/07 10:46:39;;;;;;;3.67;3.38;;;13.30;19.10;;;;;;5079833;28;20210;-76
2021/05/07 10:49:05;;;;;;;3.90;3.58;;;13.40;18.70;;;;;;5075719;28;20330;-76
2021/05/07 10:51:32;;;;;;;4.13;3.33;;;13.40;19.40;;;;;;5068318;28;20221;-75
2021/05/07 10:54:07;;;;;;;3.95;3.30;;;13.20;18.90;;;;;;5068777;28;20623;-76
2021/05/07 10:56:36;;;;;;;4.00;3.60;;;12.70;19.90;;;;;;5075254;28;20197;-76
2021/05/07 10:59:12;;;;;;;4.38;3.97;;;12.50;19.60;;;;;;5071112;28;20228;-76
2021/05/07 11:01:39;;;;;;;3.85;3.20;;;12.30;21.00;;;;;;5070096;28;20206;-76
2021/05/07 11:04:08;;;;;;;4.50;3.45;;;12.50;21.00;;;;;;5057779;28;20211;-77
2021/05/07 11:06:37;;;;;;;4.03;3.63;;;12.80;21.00;;;;;;5058019;28;20332;-76
2021/05/07 11:09:18;;;;;;;3.38;3.08;;;13.10;21.30;;;;;;5064127;28;20575;-76
2021/05/07 11:11:47;;;;;;;3.88;3.50;;;13.40;21.00;;;;;;5064818;28;20229;-76
2021/05/07 11:14:15;;;;;;;7.18;3.10;;;13.60;19.60;;;;;;5061300;28;20555;-77
2021/05/07 11:16:44;;;;;;;3.45;3.15;;;13.70;19.90;;;;;;5056357;28;20270;-76
2021/05/07 11:19:24;;;;;;;4.65;3.60;;;14.00;19.70;;;;;;5072646;28;20225;-78
2021/05/07 11:21:56;;;;;;;3.83;3.53;;;14.00;19.10;;;;;;5073384;28;20292;-77
2021/05/07 11:24:23;;;;;;;6.20;3.78;;;13.90;19.60;;;;;;5061653;28;20198;-77
2021/05/07 11:26:51;;;;;;;5.53;3.53;;;13.50;20.00;;;;;;5059900;28;20206;-77
2021/05/07 11:29:28;;;;;;;3.65;3.33;;;13.20;20.10;;;;;;5073193;28;20531;-77
2021/05/07 11:31:55;;;;;;;6.45;3.45;;;13.00;23.00;;;;;;5060030;28;20253;-77
2021/05/07 11:34:25;;;;;;;3.60;3.10;;;13.00;23.80;;;;;;5054527;28;20217;-78
2021/05/07 11:36:58;;;;;;;5.03;3.63;;;12.90;23.30;;;;;;5057604;28;20266;-76
2021/05/07 11:39:24;;;;;;;3.58;2.60;;;12.60;23.60;;;;;;5078322;28;20224;-75
2021/05/07 11:41:51;;;;;;;4.03;3.63;;;12.40;25.60;;;;;;5096782;28;20202;-77
2021/05/07 11:44:18;;;;;;;9.43;3.83;;;12.10;26.30;;;;;;5093166;28;20246;-76
2021/05/07 11:46:54;;;;;;;6.60;3.90;;;11.80;27.90;;;;;;5076207;28;20203;-77
2021/05/07 11:49:23;;;;;;;4.05;3.58;;;11.70;27.40;;;;;;5075515;28;20321;-78
2021/05/07 11:51:50;;;;;;;3.85;3.40;;;11.80;27.40;;;;;;5060742;28;20724;-79
2021/05/07 11:54:16;;;;;;;4.40;3.60;;;12.30;27.00;;;;;;5060035;28;20264;-78
2021/05/07 11:56:42;;;;;;;4.05;3.22;;;12.40;26.30;;;;;;5057580;28;20238;-77
2021/05/07 11:59:10;;;;;;;3.03;2.80;;;12.10;25.60;;;;;;5068435;28;20236;-75
2021/05/07 12:01:36;;;;;;;2.70;2.47;;;12.20;26.50;;;;;;5087540;28;20226;-80
2021/05/07 12:04:03;;;;;;;3.03;2.83;;;12.30;24.60;;;;;;5057225;28;20287;-78
2021/05/07 12:06:30;;;;;;;4.38;2.65;;;12.60;26.30;;;;;;5057344;28;20306;-78
2021/05/07 12:09:11;;;;;;;3.63;2.72;;;12.90;23.80;;;;;;5058785;28;20751;-78
2021/05/07 12:11:38;;;;;;;3.80;2.50;;;13.00;23.80;;;;;;5058560;28;20206;-78
2021/05/07 12:14:11;;;;;;;3.05;2.33;;;13.30;24.10;;;;;;5078674;28;20267;-77
2021/05/07 12:16:38;;;;;;;3.85;2.35;;;13.50;24.20;;;;;;5075813;28;20246;-78
2021/05/07 12:19:05;;;;;;;2.85;1.98;;;13.60;22.10;;;;;;5057625;28;20313;-79
2021/05/07 12:21:40;;;;;;;3.17;2.40;;;13.30;24.10;;;;;;5069591;28;20202;-78
2021/05/07 12:24:10;;;;;;;2.20;2.00;;;12.90;25.20;;;;;;5079628;28;20485;-79
2021/05/07 12:26:49;;;;;;;2.33;2.13;;;12.20;27.80;;;;;;5067013;28;20206;-79
2021/05/07 12:29:17;;;;;;;2.25;2.15;;;11.30;30.70;;;;;;5057890;28;20253;-78
2021/05/07 12:31:44;;;;;;;4.20;2.40;;;10.80;34.10;;;;;;5057917;28;20282;-79
2021/05/07 12:34:15;;;;;;;2.72;1.90;;;10.70;34.80;;;;;;5060336;28;20210;-78
2021/05/07 12:36:43;;;;;;;2.10;1.77;;;10.70;37.90;;;;;;5069737;28;20198;-78
2021/05/07 12:39:11;;;;;;;2.15;2.03;;;10.80;35.20;;;;;;5085666;28;20511;-78
2021/05/07 12:41:37;;;;;;;2.60;1.90;;;10.70;34.70;;;;;;5073471;28;20211;-80
2021/05/07 12:44:04;;;;;;;2.53;2.20;;;11.00;32.50;;;;;;5059872;28;20244;-77
2021/05/07 12:46:34;;;;;;;2.17;2.08;;;11.30;32.10;;;;;;5065515;28;20273;-78
2021/05/07 12:49:01;;;;;;;1.90;1.80;;;11.70;31.70;;;;;;5072683;28;20726;-79
2021/05/07 12:51:27;;;;;;;2.92;1.80;;;12.10;31.40;;;;;;5056110;28;20419;-78
2021/05/07 12:54:03;;;;;;;4.35;2.33;;;12.60;28.60;;;;;;5064313;28;20222;-78
2021/05/07 12:56:46;;;;;;;2.40;2.20;;;12.90;26.00;;;;;;5080959;28;20212;-79